Time;durP1;ratioP1;P1;durP2;ratioP2;P2;SDS_P1;SDS_P2;PMS_P1;PMS_P2;Temp;Humidity;BMP_temperature;BMP_pressure;BME280_temperature;BME280_humidity;BME280_pressure;Samples;Min_cycle;Max_cycle;Signal;HPM_P1;HPM_P2
2022/10/29 00:00:48;;;;;;;14.10;4.35;;;;;;;17.23;78.17;101240.91;5043851;28;20045;-63
2022/10/29 00:03:16;;;;;;;12.07;3.75;;;;;;;17.27;78.08;101245.03;5039843;28;20072;-66
2022/10/29 00:05:43;;;;;;;21.83;4.55;;;;;;;17.29;77.91;101248.44;5037795;28;20463;-63
2022/10/29 00:08:10;;;;;;;14.55;4.43;;;;;;;17.43;77.45;101258.03;5035244;28;20049;-64
2022/10/29 00:10:37;;;;;;;17.90;3.92;;;;;;;17.36;77.65;101252.31;5049446;28;20095;-65
2022/10/29 00:13:04;;;;;;;13.60;5.13;;;;;;;17.31;78.00;101251.81;5034758;28;20404;-64
2022/10/29 00:15:31;;;;;;;10.68;3.22;;;;;;;17.31;78.01;101250.97;5033136;28;22012;-64
2022/10/29 00:18:00;;;;;;;14.82;4.28;;;;;;;17.33;78.04;101260.53;5040303;28;20040;-67
2022/10/29 00:20:27;;;;;;;10.27;3.80;;;;;;;17.27;78.47;101250.38;5039320;28;20478;-65
2022/10/29 00:22:55;;;;;;;14.57;3.78;;;;;;;17.33;78.21;101255.19;5036520;28;20163;-64
2022/10/29 00:25:22;;;;;;;21.30;4.30;;;;;;;17.29;78.82;101250.22;5037100;28;20053;-65
2022/10/29 00:27:49;;;;;;;18.30;4.22;;;;;;;17.26;78.99;101250.50;5037840;28;20148;-65
2022/10/29 00:30:16;;;;;;;17.35;4.68;;;;;;;17.27;78.95;101261.00;5039717;28;20137;-64
2022/10/29 00:32:43;;;;;;;16.35;4.03;;;;;;;17.25;79.07;101262.94;5038034;28;20132;-65
2022/10/29 00:35:11;;;;;;;15.13;4.47;;;;;;;17.23;79.68;101264.88;5034437;28;20051;-65
2022/10/29 00:37:39;;;;;;;24.83;4.95;;;;;;;17.24;79.25;101271.03;5031568;28;20046;-64
2022/10/29 00:40:08;;;;;;;16.25;4.38;;;;;;;17.24;79.34;101273.69;5038217;28;20148;-65
2022/10/29 00:42:36;;;;;;;10.95;3.85;;;;;;;17.22;79.46;101279.13;5038635;28;20379;-65
2022/10/29 00:45:03;;;;;;;18.05;5.00;;;;;;;17.25;79.59;101288.72;5040789;28;20063;-64
2022/10/29 00:47:34;;;;;;;17.00;4.45;;;;;;;17.23;80.28;101294.13;5033244;28;20053;-65
2022/10/29 00:50:05;;;;;;;14.95;4.65;;;;;;;17.34;79.76;101298.66;5041105;28;20144;-66
2022/10/29 00:52:38;;;;;;;19.35;4.78;;;;;;;17.30;80.07;101286.53;5030204;28;20095;-65
2022/10/29 00:55:07;;;;;;;11.77;4.35;;;;;;;17.28;80.15;101283.13;5034937;28;20083;-64
2022/10/29 00:57:40;;;;;;;15.70;4.55;;;;;;;17.25;80.84;101284.25;5050083;28;20128;-64
2022/10/29 01:00:08;;;;;;;21.23;6.85;;;;;;;17.24;81.21;101290.50;5036954;28;20054;-66
2022/10/29 01:02:37;;;;;;;12.13;4.30;;;;;;;17.20;81.41;101281.06;5031723;28;20521;-65
2022/10/29 01:05:05;;;;;;;18.35;5.72;;;;;;;17.23;81.86;101280.81;5029909;28;20399;-65
2022/10/29 01:07:33;;;;;;;18.88;5.32;;;;;;;17.22;81.60;101273.81;5034251;28;20139;-65
2022/10/29 01:10:00;;;;;;;20.15;5.05;;;;;;;17.29;81.47;101275.06;5038407;28;21110;-65
2022/10/29 01:12:55;;;;;;;13.70;3.88;;;;;;;17.28;81.64;101269.84;5033013;28;20049;-65
2022/10/29 01:15:44;;;;;;;16.77;4.93;;;;;;;17.25;82.04;101278.91;5025651;28;20099;-64
2022/10/29 01:18:33;;;;;;;14.85;4.70;;;;;;;17.19;82.62;101272.22;5028719;28;20136;-65
2022/10/29 01:21:22;;;;;;;23.00;6.38;;;;;;;17.18;82.99;101283.84;5015100;28;20040;-64
2022/10/29 01:24:15;;;;;;;17.50;4.75;;;;;;;17.12;83.43;101279.00;5035986;28;20080;-64
2022/10/29 01:27:01;;;;;;;18.25;4.68;;;;;;;17.08;83.60;101280.19;5034925;28;20513;-64
2022/10/29 01:29:55;;;;;;;14.10;4.85;;;;;;;17.08;83.68;101276.69;5030941;28;20092;-64
2022/10/29 01:32:30;;;;;;;8.95;4.50;;;;;;;17.08;83.67;101282.00;5035587;28;20093;-65
2022/10/29 01:35:02;;;;;;;19.98;4.80;;;;;;;17.03;84.50;101279.69;5027734;28;20132;-64
2022/10/29 01:37:30;;;;;;;18.23;4.68;;;;;;;17.01;84.40;101283.44;5024961;28;20556;-64
2022/10/29 01:40:25;;;;;;;17.52;5.30;;;;;;;16.98;84.57;101275.69;5031928;28;20054;-63
2022/10/29 01:42:57;;;;;;;21.27;5.38;;;;;;;16.98;84.82;101273.03;5035129;28;20049;-64
2022/10/29 01:45:30;;;;;;;14.15;5.63;;;;;;;17.02;84.49;101280.66;5032296;28;20150;-64
2022/10/29 01:48:13;;;;;;;17.20;6.65;;;;;;;16.99;84.78;101280.88;5033400;28;20046;-64
2022/10/29 01:50:43;;;;;;;16.50;5.20;;;;;;;17.06;84.30;101286.59;5042532;28;20076;-66
2022/10/29 01:53:10;;;;;;;19.90;4.80;;;;;;;16.94;85.24;101297.19;5021981;28;20542;-65
2022/10/29 01:55:37;;;;;;;11.38;5.00;;;;;;;16.86;86.51;101301.38;5029450;28;20476;-64
2022/10/29 01:58:05;;;;;;;14.68;5.00;;;;;;;16.79;87.34;101297.47;5025552;28;20084;-64
2022/10/29 02:01:02;;;;;;;19.77;5.07;;;;;;;16.73;87.30;101293.47;5029240;28;20468;-64
2022/10/29 02:03:50;;;;;;;15.85;4.82;;;;;;;16.68;87.83;101301.75;5023568;28;20140;-65
2022/10/29 02:06:32;;;;;;;19.35;6.53;;;;;;;16.69;87.35;101308.75;5022521;28;20132;-65
2022/10/29 02:09:16;;;;;;;13.93;4.55;;;;;;;16.75;87.24;101315.50;5032054;28;20061;-64
2022/10/29 02:12:13;;;;;;;14.95;5.25;;;;;;;16.71;87.22;101311.31;5037569;28;20080;-64
2022/10/29 02:14:46;;;;;;;26.70;6.18;;;;;;;16.66;88.04;101301.03;5010605;28;20059;-64
2022/10/29 02:17:14;;;;;;;19.20;5.72;;;;;;;16.70;88.26;101299.81;5030977;28;20133;-65
2022/10/29 02:19:41;;;;;;;22.92;6.15;;;;;;;16.71;88.69;101309.50;5037027;28;20103;-64
2022/10/29 02:22:08;;;;;;;21.05;6.05;;;;;;;16.66;88.69;101309.00;5028368;28;20144;-64
2022/10/29 02:24:35;;;;;;;15.48;5.75;;;;;;;16.59;89.74;101312.22;5034975;28;20083;-64
2022/10/29 02:27:02;;;;;;;18.75;6.15;;;;;;;16.56;89.95;101315.09;5035946;28;20104;-64
2022/10/29 02:29:31;;;;;;;16.70;5.75;;;;;;;16.55;90.25;101326.69;5032859;28;20056;-64
2022/10/29 02:31:58;;;;;;;16.17;5.35;;;;;;;16.52;90.59;101325.09;5028900;28;20100;-64
2022/10/29 02:34:25;;;;;;;21.35;6.55;;;;;;;16.50;90.78;101324.38;5035619;28;20088;-64
2022/10/29 02:36:52;;;;;;;19.40;5.25;;;;;;;16.49;90.26;101335.97;5036231;28;20056;-64
2022/10/29 02:39:20;;;;;;;14.38;4.82;;;;;;;16.48;90.49;101334.28;5031616;28;20123;-65
2022/10/29 02:41:47;;;;;;;18.92;5.22;;;;;;;16.50;90.38;101337.66;5037227;28;20049;-64
2022/10/29 02:44:14;;;;;;;20.83;5.88;;;;;;;16.43;91.35;101339.91;5034432;28;20115;-65
2022/10/29 02:46:42;;;;;;;17.20;5.43;;;;;;;16.44;91.02;101341.63;5043883;28;20115;-65
2022/10/29 02:49:10;;;;;;;17.02;5.25;;;;;;;16.55;90.45;101337.31;5034174;28;20092;-64
2022/10/29 02:51:37;;;;;;;20.80;6.75;;;;;;;16.44;91.12;101338.97;5032950;28;20061;-64
2022/10/29 02:54:04;;;;;;;17.30;5.45;;;;;;;16.41;91.60;101341.84;5038871;28;20081;-65
2022/10/29 02:56:31;;;;;;;15.48;5.07;;;;;;;16.42;91.41;101350.66;5040831;28;20071;-64
2022/10/29 02:58:58;;;;;;;10.07;5.07;;;;;;;16.42;91.17;101353.31;5039861;28;20131;-64
2022/10/29 03:01:25;;;;;;;12.90;5.53;;;;;;;16.52;90.74;101354.34;5039787;28;20499;-65
2022/10/29 03:03:53;;;;;;;15.95;5.32;;;;;;;16.50;90.78;101340.31;5035293;28;20136;-63
2022/10/29 03:06:20;;;;;;;23.63;5.35;;;;;;;16.45;90.79;101337.16;5027145;28;20053;-64
2022/10/29 03:08:47;;;;;;;15.65;5.28;;;;;;;16.38;91.38;101335.88;5032119;28;20136;-65
2022/10/29 03:11:15;;;;;;;13.50;5.45;;;;;;;16.34;91.66;101339.72;5037841;28;20088;-64
2022/10/29 03:13:42;;;;;;;16.65;5.38;;;;;;;16.30;91.87;101335.56;5039473;28;20076;-65
2022/10/29 03:16:09;;;;;;;15.65;5.80;;;;;;;16.28;91.65;101337.50;5038794;28;20132;-64
2022/10/29 03:18:36;;;;;;;23.38;6.30;;;;;;;16.34;91.83;101335.25;5034430;28;20045;-65
2022/10/29 03:21:04;;;;;;;15.18;5.47;;;;;;;16.31;91.56;101338.13;5039663;28;20099;-64
2022/10/29 03:23:31;;;;;;;14.13;5.45;;;;;;;16.29;91.36;101337.38;5036347;28;20146;-63
2022/10/29 03:25:58;;;;;;;17.30;5.90;;;;;;;16.30;91.93;101336.44;5041944;28;20057;-64
2022/10/29 03:28:29;;;;;;;17.38;6.15;;;;;;;16.26;92.45;101332.31;5038945;28;20071;-65
2022/10/29 03:30:57;;;;;;;17.83;6.80;;;;;;;16.19;92.33;101334.53;5035309;28;20144;-65
2022/10/29 03:33:25;;;;;;;12.48;5.65;;;;;;;16.20;92.11;101330.91;5038230;28;20080;-64
2022/10/29 03:35:59;;;;;;;17.65;5.45;;;;;;;16.14;92.68;101336.69;5031218;28;20053;-65
2022/10/29 03:38:27;;;;;;;20.17;6.30;;;;;;;16.10;93.53;101337.84;5040197;28;20064;-64
2022/10/29 03:40:54;;;;;;;15.75;5.57;;;;;;;16.04;93.87;101343.59;5027654;28;20084;-64
2022/10/29 03:43:21;;;;;;;16.50;5.50;;;;;;;16.02;94.22;101344.66;5033177;28;20126;-64
2022/10/29 03:45:52;;;;;;;24.15;6.07;;;;;;;16.00;94.49;101341.28;5038721;28;20071;-63
2022/10/29 03:48:21;;;;;;;21.67;7.10;;;;;;;16.01;94.58;101346.47;5033608;28;20137;-65
2022/10/29 03:50:55;;;;;;;28.83;6.43;;;;;;;15.99;94.42;101345.75;5053638;28;20064;-64
2022/10/29 03:53:23;;;;;;;15.13;6.33;;;;;;;15.95;95.14;101350.41;5026997;28;20517;-64
2022/10/29 03:55:51;;;;;;;16.70;6.47;;;;;;;15.94;95.37;101348.72;5033103;28;20060;-64
2022/10/29 03:58:19;;;;;;;20.38;6.57;;;;;;;15.99;94.61;101356.38;5037790;28;20095;-64
2022/10/29 04:00:57;;;;;;;24.85;8.05;;;;;;;15.99;95.07;101351.06;5037805;28;20136;-64
2022/10/29 04:03:25;;;;;;;19.30;6.30;;;;;;;15.96;95.01;101353.91;5043021;28;20085;-64
2022/10/29 04:05:53;;;;;;;17.85;5.60;;;;;;;15.98;94.97;101349.31;5031038;28;20056;-65
2022/10/29 04:08:21;;;;;;;17.52;5.72;;;;;;;15.98;94.78;101359.94;5030318;28;20096;-65
2022/10/29 04:10:49;;;;;;;22.70;5.85;;;;;;;15.97;95.45;101368.88;5031294;28;20053;-65
2022/10/29 04:13:18;;;;;;;16.30;5.82;;;;;;;15.94;94.84;101367.31;5032387;28;20057;-65
2022/10/29 04:15:45;;;;;;;18.95;6.93;;;;;;;15.96;94.35;101367.19;5035027;28;20067;-63
2022/10/29 04:18:12;;;;;;;22.30;6.53;;;;;;;15.96;95.08;101361.88;5038869;28;20055;-65
2022/10/29 04:20:40;;;;;;;11.18;5.57;;;;;;;15.93;94.87;101368.25;5033524;28;20049;-65
2022/10/29 04:23:27;;;;;;;17.20;6.32;;;;;;;15.90;95.58;101363.16;5024691;28;20136;-64
2022/10/29 04:26:14;;;;;;;18.58;6.57;;;;;;;15.89;95.34;101371.22;5039767;28;20177;-65
2022/10/29 04:29:03;;;;;;;23.90;6.60;;;;;;;15.90;94.58;101367.63;5035132;28;20433;-70
2022/10/29 04:31:30;;;;;;;18.15;5.70;;;;;;;15.90;94.72;101365.81;5029319;28;20080;-64
2022/10/29 04:33:57;;;;;;;12.27;6.15;;;;;;;15.89;94.77;101366.75;5038375;28;20183;-63
2022/10/29 04:36:24;;;;;;;17.13;6.63;;;;;;;15.88;95.01;101353.59;5035265;28;20103;-64
2022/10/29 04:38:52;;;;;;;19.83;5.95;;;;;;;15.83;95.08;101355.72;5039674;28;20053;-64
2022/10/29 04:41:20;;;;;;;17.25;6.57;;;;;;;15.81;94.97;101362.97;5029557;28;20140;-64
2022/10/29 04:43:47;;;;;;;15.52;5.30;;;;;;;15.79;94.88;101351.56;5031673;28;20145;-64
2022/10/29 04:46:14;;;;;;;18.60;6.95;;;;;;;15.84;94.64;101349.44;5037190;28;20065;-64
2022/10/29 04:48:41;;;;;;;20.35;7.13;;;;;;;15.80;95.81;101340.00;5033494;28;20268;-64
2022/10/29 04:51:18;;;;;;;16.52;6.13;;;;;;;15.80;94.51;101348.81;5031459;28;20144;-65
2022/10/29 04:53:45;;;;;;;14.30;6.15;;;;;;;15.81;95.62;101344.38;5026757;28;20057;-65
2022/10/29 04:56:12;;;;;;;17.60;6.35;;;;;;;15.77;95.83;101340.22;5029663;28;20064;-64
2022/10/29 04:58:39;;;;;;;18.42;6.07;;;;;;;15.74;95.36;101341.28;5027379;28;20517;-64
2022/10/29 05:01:07;;;;;;;19.00;6.85;;;;;;;15.78;94.79;101357.84;5029401;28;20073;-64
2022/10/29 05:03:34;;;;;;;14.20;5.15;;;;;;;15.80;94.26;101363.88;5030373;28;20157;-64
2022/10/29 05:06:03;;;;;;;18.10;6.18;;;;;;;15.79;95.85;101365.69;5029689;28;20235;-64
2022/10/29 05:08:30;;;;;;;13.93;6.47;;;;;;;15.74;95.38;101373.13;5026296;28;20490;-64
2022/10/29 05:11:01;;;;;;;18.77;5.75;;;;;;;15.68;95.27;101379.72;5024293;28;20097;-65
2022/10/29 05:13:28;;;;;;;17.65;5.97;;;;;;;15.66;96.03;101370.16;5024018;28;20137;-64
2022/10/29 05:15:55;;;;;;;18.30;6.10;;;;;;;15.69;95.40;101364.63;5029497;28;20148;-63
2022/10/29 05:18:22;;;;;;;15.45;5.95;;;;;;;15.67;95.98;101375.38;5030039;28;20168;-64
2022/10/29 05:20:56;;;;;;;20.17;6.55;;;;;;;15.64;95.85;101372.06;5029569;28;20522;-63
2022/10/29 05:23:23;;;;;;;19.13;6.35;;;;;;;15.62;97.48;101380.09;5025449;28;20141;-64
2022/10/29 05:25:51;;;;;;;23.02;6.90;;;;;;;15.58;97.39;101375.97;5029702;28;20536;-63
2022/10/29 05:28:21;;;;;;;13.05;6.45;;;;;;;15.65;96.48;101374.59;5036003;28;20120;-64
2022/10/29 05:30:50;;;;;;;16.35;6.40;;;;;;;15.61;96.63;101372.25;5034866;28;20136;-64
2022/10/29 05:33:21;;;;;;;18.38;6.15;;;;;;;15.60;96.31;101379.34;5028692;28;20081;-64
2022/10/29 05:35:49;;;;;;;20.05;6.03;;;;;;;15.58;97.13;101375.97;5034407;28;20051;-63
2022/10/29 05:38:16;;;;;;;15.43;5.85;;;;;;;15.58;96.96;101380.41;5035697;28;20099;-64
2022/10/29 05:40:44;;;;;;;17.88;6.63;;;;;;;15.59;96.82;101377.66;5030369;28;20071;-63
2022/10/29 05:43:12;;;;;;;23.50;6.93;;;;;;;15.50;98.52;101374.78;5030193;28;20518;-63
2022/10/29 05:45:39;;;;;;;18.48;6.97;;;;;;;15.46;97.94;101363.53;5030596;28;20225;-64
2022/10/29 05:48:07;;;;;;;21.05;7.15;;;;;;;15.43;97.63;101361.91;5031764;28;20132;-62
2022/10/29 05:50:34;;;;;;;17.27;7.38;;;;;;;15.40;99.06;101363.91;5037683;28;20131;-63
2022/10/29 05:53:04;;;;;;;20.80;7.45;;;;;;;15.35;98.75;101344.81;5011467;28;20256;-63
2022/10/29 05:55:33;;;;;;;17.00;5.85;;;;;;;15.30;99.03;101353.06;5024304;28;20123;-64
2022/10/29 05:58:06;;;;;;;16.58;6.82;;;;;;;15.34;99.06;101351.06;5028680;28;20045;-63
2022/10/29 06:00:36;;;;;;;18.52;7.47;;;;;;;15.26;100.00;101356.88;5036073;28;20049;-63
2022/10/29 06:03:10;;;;;;;18.30;6.80;;;;;;;15.25;98.79;101364.94;5027000;28;20092;-63
2022/10/29 06:05:37;;;;;;;16.35;6.05;;;;;;;15.24;99.01;101369.41;5027902;28;20103;-63
2022/10/29 06:08:05;;;;;;;15.50;7.15;;;;;;;15.23;100.00;101377.47;5028786;28;20080;-63
2022/10/29 06:10:33;;;;;;;15.05;6.38;;;;;;;15.22;99.58;101378.41;5027040;28;20069;-63
2022/10/29 06:13:01;;;;;;;14.65;5.78;;;;;;;15.23;99.57;101377.47;5026699;28;20080;-62
2022/10/29 06:15:28;;;;;;;14.60;5.10;;;;;;;15.26;98.47;101382.56;5035289;28;20077;-63
2022/10/29 06:17:56;;;;;;;22.35;6.15;;;;;;;15.33;98.88;101386.53;5025756;28;20045;-63
2022/10/29 06:20:25;;;;;;;20.17;6.72;;;;;;;15.28;99.26;101385.97;5026946;28;20058;-63
2022/10/29 06:22:56;;;;;;;12.57;6.07;;;;;;;15.22;99.39;101378.41;5035252;28;20064;-63
2022/10/29 06:25:25;;;;;;;16.63;7.15;;;;;;;15.18;99.54;101375.97;5030602;28;20046;-63
2022/10/29 06:28:07;;;;;;;17.23;6.68;;;;;;;15.16;99.64;101390.28;5038556;28;20041;-64
2022/10/29 06:30:35;;;;;;;25.92;8.20;;;;;;;15.14;100.00;101395.69;5032276;28;20413;-63
2022/10/29 06:33:03;;;;;;;23.73;6.68;;;;;;;15.11;100.00;101398.53;5034596;28;20127;-63
2022/10/29 06:35:31;;;;;;;16.83;6.07;;;;;;;15.08;100.00;101404.03;5032626;28;20060;-63
2022/10/29 06:37:58;;;;;;;16.20;7.15;;;;;;;15.09;100.00;101403.13;5040292;28;20084;-63
2022/10/29 06:40:27;;;;;;;16.08;7.00;;;;;;;15.10;100.00;101401.31;5027159;28;20080;-64
2022/10/29 06:42:58;;;;;;;20.17;6.88;;;;;;;15.10;100.00;101399.50;5035166;28;20061;-64
2022/10/29 06:45:26;;;;;;;22.40;6.47;;;;;;;15.13;100.00;101409.03;5024577;28;20128;-64
2022/10/29 06:47:55;;;;;;;24.05;7.60;;;;;;;15.13;100.00;101411.69;5031549;28;20052;-64
2022/10/29 06:50:22;;;;;;;24.02;6.20;;;;;;;15.16;100.00;101416.81;5036742;28;20537;-65
2022/10/29 06:52:57;;;;;;;20.40;6.78;;;;;;;15.15;100.00;101405.34;5036539;28;20144;-64
2022/10/29 06:55:26;;;;;;;25.77;7.15;;;;;;;15.14;100.00;101411.63;5024544;28;20049;-63
2022/10/29 06:57:59;;;;;;;17.50;6.32;;;;;;;15.15;100.00;101413.31;5030654;28;20065;-63
2022/10/29 07:00:27;;;;;;;22.92;6.80;;;;;;;15.18;100.00;101417.56;5025463;28;20045;-63
2022/10/29 07:02:55;;;;;;;19.92;6.55;;;;;;;15.25;99.70;101421.50;5032836;28;20066;-64
2022/10/29 07:05:23;;;;;;;15.13;6.28;;;;;;;15.29;100.00;101419.50;5028138;28;20089;-63
2022/10/29 07:07:55;;;;;;;16.50;6.47;;;;;;;15.30;100.00;101421.19;5037488;28;20162;-66
2022/10/29 07:10:23;;;;;;;20.13;7.45;;;;;;;15.30;100.00;101421.19;5020021;28;20073;-65
2022/10/29 07:12:51;;;;;;;16.25;6.10;;;;;;;15.28;100.00;101423.13;5038804;28;20052;-65
2022/10/29 07:15:18;;;;;;;17.92;7.07;;;;;;;15.26;100.00;101423.19;5026228;28;20144;-65
2022/10/29 07:17:57;;;;;;;20.45;6.95;;;;;;;15.32;100.00;101406.06;5035928;28;20081;-65
2022/10/29 07:20:26;;;;;;;17.98;6.05;;;;;;;15.35;99.71;101408.47;5033197;28;20111;-63
2022/10/29 07:22:53;;;;;;;14.40;5.95;;;;;;;15.40;99.22;101419.63;5030606;28;20140;-63
2022/10/29 07:25:20;;;;;;;21.80;7.05;;;;;;;15.44;98.42;101421.13;5027255;28;20081;-62
2022/10/29 07:27:50;;;;;;;21.55;7.15;;;;;;;15.42;100.00;101428.34;5033696;28;20164;-63
2022/10/29 07:30:18;;;;;;;17.48;6.22;;;;;;;15.36;100.00;101426.97;5035089;28;20693;-64
2022/10/29 07:32:45;;;;;;;16.30;6.32;;;;;;;15.41;100.00;101432.81;5042407;28;20144;-64
2022/10/29 07:35:12;;;;;;;13.43;5.93;;;;;;;15.43;100.00;101436.22;5034658;28;20569;-64
2022/10/29 07:37:41;;;;;;;15.45;7.20;;;;;;;15.43;100.00;101440.66;5036777;28;20037;-64
2022/10/29 07:40:08;;;;;;;19.45;7.60;;;;;;;15.49;100.00;101450.91;5029146;28;20042;-64
2022/10/29 07:42:36;;;;;;;28.38;9.13;;;;;;;15.49;100.00;101442.06;5042612;28;20076;-64
2022/10/29 07:45:03;;;;;;;13.00;6.78;;;;;;;15.48;100.00;101451.81;5033393;28;20049;-64
2022/10/29 07:47:31;;;;;;;19.13;6.82;;;;;;;15.52;100.00;101447.16;5032776;28;20096;-65
2022/10/29 07:49:59;;;;;;;20.45;9.15;;;;;;;15.57;100.00;101450.38;5032925;28;20462;-64
2022/10/29 07:52:40;;;;;;;19.80;6.88;;;;;;;15.60;100.00;101443.06;5028224;28;20394;-64
2022/10/29 07:55:07;;;;;;;16.13;6.50;;;;;;;15.64;100.00;101443.72;5031682;28;20045;-64
2022/10/29 07:57:36;;;;;;;18.45;6.72;;;;;;;15.72;100.00;101452.03;5035112;28;20461;-65
2022/10/29 08:00:03;;;;;;;18.92;7.82;;;;;;;15.73;100.00;101451.09;5039610;28;20137;-64
2022/10/29 08:02:30;;;;;;;19.77;7.43;;;;;;;15.71;100.00;101452.97;5037354;28;20464;-64
2022/10/29 08:04:57;;;;;;;16.27;7.25;;;;;;;15.79;100.00;101452.47;5039218;28;20141;-64
2022/10/29 08:07:25;;;;;;;21.33;7.65;;;;;;;15.78;100.00;101451.63;5036948;28;20138;-63
2022/10/29 08:09:53;;;;;;;16.10;7.13;;;;;;;15.80;100.00;101456.81;5035881;28;20145;-64
2022/10/29 08:12:20;;;;;;;16.38;7.90;;;;;;;15.80;100.00;101451.50;5039364;28;20057;-65
2022/10/29 08:14:47;;;;;;;18.38;6.80;;;;;;;15.80;100.00;101455.00;5037791;28;20517;-64
2022/10/29 08:17:15;;;;;;;24.40;8.73;;;;;;;15.82;100.00;101454.91;5038523;28;20072;-65
2022/10/29 08:19:42;;;;;;;17.95;7.05;;;;;;;15.85;100.00;101449.38;5035288;28;20164;-64
2022/10/29 08:22:10;;;;;;;14.77;6.90;;;;;;;15.88;100.00;101458.00;5032159;28;20060;-63
2022/10/29 08:24:38;;;;;;;30.35;8.07;;;;;;;15.94;100.00;101459.41;5038098;28;20126;-64
2022/10/29 08:27:05;;;;;;;19.23;6.63;;;;;;;15.99;100.00;101459.09;5036047;28;20061;-67
2022/10/29 08:29:32;;;;;;;17.40;6.93;;;;;;;16.07;99.97;101454.06;5035733;28;20402;-64
2022/10/29 08:31:59;;;;;;;23.23;7.85;;;;;;;16.05;100.00;101456.84;5034954;28;20545;-64
2022/10/29 08:34:27;;;;;;;19.75;8.00;;;;;;;16.07;100.00;101449.63;5036346;28;20526;-64
2022/10/29 08:36:55;;;;;;;21.42;6.88;;;;;;;16.10;100.00;101454.72;5030206;28;20129;-65
2022/10/29 08:39:22;;;;;;;19.00;7.22;;;;;;;16.13;100.00;101459.00;5037487;28;20168;-64
2022/10/29 08:42:19;;;;;;;21.80;8.35;;;;;;;16.18;99.98;101456.88;5033075;28;20133;-64
2022/10/29 08:45:08;;;;;;;23.40;8.18;;;;;;;16.27;99.83;101450.06;5038498;28;20425;-64
2022/10/29 08:47:49;;;;;;;18.77;7.03;;;;;;;16.35;99.45;101461.00;5016878;28;20077;-64
2022/10/29 08:50:27;;;;;;;15.45;7.55;;;;;;;16.43;98.68;101461.31;5050318;28;20065;-63
2022/10/29 08:52:55;;;;;;;20.05;8.68;;;;;;;16.45;98.88;101456.75;5030769;28;20056;-64
2022/10/29 08:55:43;;;;;;;16.75;9.32;;;;;;;16.49;98.52;101458.22;5038471;28;20114;-64
2022/10/29 08:58:25;;;;;;;20.60;10.18;;;;;;;16.53;98.52;101459.72;5034459;28;20081;-64
2022/10/29 09:00:55;;;;;;;30.65;11.85;;;;;;;16.55;98.35;101454.28;5041112;28;20057;-64
2022/10/29 09:03:26;;;;;;;31.13;11.68;;;;;;;16.61;98.39;101470.63;5039450;28;20052;-64
2022/10/29 09:06:02;;;;;;;25.50;11.45;;;;;;;16.70;97.09;101462.00;5028297;28;20053;-63
2022/10/29 09:08:41;;;;;;;29.73;12.00;;;;;;;16.68;97.51;101461.28;5040740;28;20430;-63
2022/10/29 09:11:31;;;;;;;28.90;11.38;;;;;;;16.69;97.23;101462.97;5036051;28;20528;-64
2022/10/29 09:14:27;;;;;;;22.55;10.85;;;;;;;16.76;97.21;101466.09;5013395;28;20075;-64
2022/10/29 09:16:56;;;;;;;26.90;10.20;;;;;;;16.80;97.30;101454.28;5038323;28;20106;-63
2022/10/29 09:19:36;;;;;;;25.58;9.15;;;;;;;16.87;96.80;101459.97;5030818;28;20060;-63
2022/10/29 09:22:25;;;;;;;22.65;10.00;;;;;;;16.93;96.47;101467.50;5027776;28;20076;-63
2022/10/29 09:24:59;;;;;;;24.98;10.48;;;;;;;16.99;96.15;101469.75;5031306;28;20081;-65
2022/10/29 09:27:57;;;;;;;21.95;8.95;;;;;;;17.04;95.46;101472.91;5034920;28;20085;-64
2022/10/29 09:30:28;;;;;;;19.60;7.22;;;;;;;17.10;95.40;101477.78;5027941;28;20140;-64
2022/10/29 09:32:59;;;;;;;23.48;9.35;;;;;;;17.17;95.18;101476.38;5040492;28;20132;-64
2022/10/29 09:35:43;;;;;;;25.27;8.70;;;;;;;17.22;94.47;101470.72;5033484;28;20064;-65
2022/10/29 09:38:23;;;;;;;18.92;9.52;;;;;;;17.39;93.38;101472.16;5038971;28;20059;-63
2022/10/29 09:40:50;;;;;;;23.33;8.57;;;;;;;17.38;92.93;101479.28;5033897;28;20053;-65
2022/10/29 09:43:44;;;;;;;23.15;8.88;;;;;;;17.43;92.63;101473.63;5036952;28;20049;-63
2022/10/29 09:46:32;;;;;;;22.70;9.25;;;;;;;17.49;92.75;101459.00;5029680;28;20061;-63
2022/10/29 09:49:18;;;;;;;22.10;8.93;;;;;;;17.61;92.52;101460.75;5035641;28;20049;-64
2022/10/29 09:52:13;;;;;;;23.88;8.00;;;;;;;17.69;92.19;101461.84;5029650;28;20099;-63
2022/10/29 09:54:40;;;;;;;21.27;8.52;;;;;;;17.76;91.65;101458.78;5030068;28;20136;-63
2022/10/29 09:57:33;;;;;;;15.88;7.22;;;;;;;17.81;91.37;101453.94;5033108;28;20046;-67
2022/10/29 10:00:03;;;;;;;23.40;8.75;;;;;;;17.84;90.66;101451.06;5012120;28;20505;-62
2022/10/29 10:03:03;;;;;;;20.48;9.07;;;;;;;17.92;90.17;101435.31;5025980;28;20136;-63
2022/10/29 10:05:32;;;;;;;17.50;8.48;;;;;;;17.95;90.44;101429.75;5004820;28;20060;-64
2022/10/29 10:08:13;;;;;;;20.30;8.30;;;;;;;17.93;90.40;101442.34;5033390;28;20049;-64
2022/10/29 10:10:55;;;;;;;22.15;8.60;;;;;;;17.89;90.21;101441.72;5022237;28;20049;-64
2022/10/29 10:13:33;;;;;;;17.25;7.22;;;;;;;17.92;90.19;101435.31;5034888;28;20053;-63
2022/10/29 10:16:04;;;;;;;16.45;7.18;;;;;;;17.93;90.16;101437.03;5033972;28;20698;-64
2022/10/29 10:18:31;;;;;;;25.17;7.70;;;;;;;17.90;89.94;101448.75;5033473;28;20147;-63
2022/10/29 10:21:29;;;;;;;20.90;7.80;;;;;;;17.94;89.17;101433.38;5034823;28;20120;-64
2022/10/29 10:23:58;;;;;;;20.70;7.55;;;;;;;17.98;88.56;101432.19;5027482;28;20085;-64
2022/10/29 10:26:34;;;;;;;20.25;6.85;;;;;;;17.94;88.85;101436.91;5034076;28;20041;-64
2022/10/29 10:29:13;;;;;;;24.13;6.95;;;;;;;17.94;89.04;101436.91;5024678;28;20207;-64
2022/10/29 10:31:44;;;;;;;21.33;7.85;;;;;;;18.01;89.00;101429.25;5040800;28;20510;-65
2022/10/29 10:34:26;;;;;;;22.73;7.18;;;;;;;18.03;88.37;101422.03;5032377;28;20136;-64
2022/10/29 10:37:05;;;;;;;31.55;7.40;;;;;;;18.16;87.71;101417.44;5037632;28;20501;-64
2022/10/29 10:39:37;;;;;;;23.67;7.55;;;;;;;18.18;87.14;101414.63;5014898;28;20063;-64
2022/10/29 10:42:20;;;;;;;17.10;6.80;;;;;;;18.30;87.17;101412.84;5038490;28;20033;-64
2022/10/29 10:44:58;;;;;;;19.23;7.18;;;;;;;18.42;86.57;101411.88;5020981;28;20083;-65
2022/10/29 10:47:29;;;;;;;21.90;6.78;;;;;;;18.52;85.83;101426.16;5038920;28;20135;-63
2022/10/29 10:50:11;;;;;;;20.35;7.93;;;;;;;18.63;85.35;101420.81;5028073;28;20124;-64
2022/10/29 10:52:38;;;;;;;19.73;6.78;;;;;;;18.87;84.58;101419.84;5033688;28;20516;-63
2022/10/29 10:55:15;;;;;;;17.63;7.55;;;;;;;19.03;82.63;101419.44;5023224;28;20597;-63
2022/10/29 10:57:49;;;;;;;20.77;7.15;;;;;;;19.05;81.64;101426.34;5026060;28;20092;-63
2022/10/29 11:00:18;;;;;;;15.18;6.47;;;;;;;19.12;81.63;101429.34;5027174;28;20068;-63
2022/10/29 11:03:07;;;;;;;17.08;6.93;;;;;;;19.28;81.22;101431.63;5028692;28;20532;-63
2022/10/29 11:05:37;;;;;;;16.58;5.95;;;;;;;19.37;80.64;101421.00;5025301;28;20133;-64
2022/10/29 11:08:20;;;;;;;19.02;6.88;;;;;;;19.45;79.94;101425.69;5030288;28;20156;-64
2022/10/29 11:10:51;;;;;;;19.48;6.43;;;;;;;19.55;79.48;101418.63;5031511;28;20076;-65
2022/10/29 11:13:24;;;;;;;20.92;7.30;;;;;;;19.59;78.53;101416.56;5032211;28;20132;-63
2022/10/29 11:15:57;;;;;;;21.15;7.20;;;;;;;19.69;78.17;101412.16;5024924;28;20050;-63
2022/10/29 11:18:32;;;;;;;22.15;6.68;;;;;;;19.69;77.32;101407.66;5025191;28;20144;-63
2022/10/29 11:21:12;;;;;;;17.80;5.87;;;;;;;19.88;78.18;101398.06;5032383;28;20136;-64
2022/10/29 11:23:45;;;;;;;21.20;5.80;;;;;;;20.05;76.93;101396.63;5032709;28;20092;-63
2022/10/29 11:26:44;;;;;;;14.45;6.05;;;;;;;20.39;74.70;101386.47;5030463;28;20113;-64
2022/10/29 11:29:44;;;;;;;18.05;6.05;;;;;;;20.50;74.19;101382.91;5027495;28;20141;-63
2022/10/29 11:32:33;;;;;;;18.13;5.95;;;;;;;20.66;73.65;101389.41;5031215;28;20136;-61
2022/10/29 11:35:09;;;;;;;16.67;6.50;;;;;;;20.67;72.23;101385.75;5024435;28;20045;-64
2022/10/29 11:38:00;;;;;;;11.77;5.38;;;;;;;20.46;73.57;101375.09;5032819;28;20550;-64